LIPL

Ghedi Airport

Ghedi, Italy
TAF LIPL 192000Z 1921/2006 VRB03KT 5000 BR NSC TEMPO 2000/2006 2000 BR MIFG
Issued Valid From Valid To
Sep-19 @ 20:00 UTC
(5 hours ago)
Sep-19 @ 21:00 UTC
(4 hours ago)
Sep-20 @ 06:00 UTC
(in 5 hours)
Sep-19 @ 21:00 to Sep-20 @ 06:00
TAF LIPL 192000Z 1921/2006 VRB03KT 5000 BR NSC
Wind Visibility Clouds Conditions
Variable at 3 knots 5,005 meters
  • No significant clouds
  • Mist
Temporary Sep-20 @ 00:00 to Sep-20 @ 06:00
TEMPO 2000/2006 2000 BR MIFG
Visibility Conditions
1,996 meters
  • Mist
  • Shallow
  • Fog
TAF LIPL 192000Z 1921/2006 VRB03KT 5000 BR NSC TEMPO 2000/2006 2000 BR MIFG
Issued Sep-19 @ 20:00 UTC
(5 hours ago)
Valid From Sep-19 @ 21:00 UTC
(4 hours ago)
Valid To Sep-20 @ 06:00 UTC
(in 5 hours)
Sep-19 @ 21:00 - Sep-20 @ 06:00
Wind Visibility
Variable at 3 knots 5,005 meters
Clouds
  • No significant clouds
Conditions
  • Mist
Temporary Sep-20 @ 00:00 - Sep-20 @ 06:00
Conditions
  • Mist
  • Shallow
  • Fog